Terminal Aerodrome Forecast
Issued by NWS

Home | Current Version | Previous Version | Text Only | Print | Product List | Glossary On
Versions: 1 2 3 4 5 6 7 8 9 10 11 12 13 14
000
FTUS46 KSTO 231403 AAB
TAFMHR
TAF AMD
KMHR 231403Z 2314/2412 32006KT P6SM FEW005
      TEMPO 2314/2315 3/4SM BR OVC003
     FM231900 34009G17KT P6SM SKC
     FM240200 VRB05KT P6SM SKC
      AMD NOT SKED=

USA.gov is the U.S. government's official web portal to all federal, state and local government web resources and services.